Time;durP1;ratioP1;P1;durP2;ratioP2;P2;SDS_P1;SDS_P2;PMS_P1;PMS_P2;Temp;Humidity;BMP_temperature;BMP_pressure;BME280_temperature;BME280_humidity;BME280_pressure;Samples;Min_cycle;Max_cycle;Signal;HPM_P1;HPM_P2
2021/03/27 00:01:47;;;;;;;1.92;1.10;;;6.80;70.00;;;;;;5073741;28;20388;-69
2021/03/27 00:04:22;;;;;;;0.90;0.90;;;6.80;70.30;;;;;;5074178;28;20025;-69
2021/03/27 00:06:50;;;;;;;1.20;1.10;;;6.70;70.40;;;;;;5073565;28;20470;-69
2021/03/27 00:09:33;;;;;;;0.95;0.88;;;6.70;70.50;;;;;;5073553;28;20044;-69
2021/03/27 00:12:12;;;;;;;1.08;1.00;;;6.80;70.50;;;;;;5073567;28;20028;-69
2021/03/27 00:14:43;;;;;;;0.90;0.90;;;6.70;70.50;;;;;;5073392;28;20074;-69
2021/03/27 00:17:15;;;;;;;1.08;0.98;;;6.70;70.40;;;;;;5073777;28;20032;-69
2021/03/27 00:19:48;;;;;;;1.70;1.00;;;6.70;70.40;;;;;;5073335;28;20043;-69
2021/03/27 00:22:14;;;;;;;1.13;1.02;;;6.70;70.70;;;;;;5073936;28;20012;-69
2021/03/27 00:25:02;;;;;;;0.88;0.80;;;6.70;71.00;;;;;;5072040;28;20028;-69
2021/03/27 00:27:37;;;;;;;1.38;1.10;;;6.60;71.10;;;;;;5073356;28;20025;-69
2021/03/27 00:30:12;;;;;;;0.80;0.80;;;6.50;71.20;;;;;;5072050;28;20028;-69
2021/03/27 00:32:50;;;;;;;0.65;0.65;;;6.50;71.40;;;;;;5073081;28;20039;-69
2021/03/27 00:35:32;;;;;;;0.80;0.80;;;6.50;71.50;;;;;;5073224;28;20025;-69
2021/03/27 00:38:00;;;;;;;0.90;0.70;;;6.50;71.50;;;;;;5073429;28;20040;-70
2021/03/27 00:40:29;;;;;;;0.57;0.57;;;6.50;71.60;;;;;;5073698;28;20064;-69
2021/03/27 00:43:06;;;;;;;0.50;0.50;;;6.60;71.80;;;;;;5073155;28;20044;-69
2021/03/27 00:45:40;;;;;;;0.40;0.40;;;6.50;71.80;;;;;;5073173;28;20033;-69
2021/03/27 00:48:11;;;;;;;1.15;0.40;;;6.60;71.90;;;;;;5073146;28;20027;-69
2021/03/27 00:50:45;;;;;;;0.40;0.40;;;6.60;71.90;;;;;;5073130;28;20021;-69
2021/03/27 00:53:27;;;;;;;0.50;0.50;;;6.60;72.00;;;;;;5073073;28;20086;-69
2021/03/27 00:56:14;;;;;;;0.50;0.50;;;6.60;72.10;;;;;;5073661;28;20035;-70
2021/03/27 00:58:49;;;;;;;0.32;0.32;;;6.60;72.20;;;;;;5075283;28;20039;-69
2021/03/27 01:01:17;;;;;;;0.50;0.50;;;6.50;72.40;;;;;;5075872;28;20047;-68
2021/03/27 01:03:49;;;;;;;0.30;0.30;;;6.50;72.60;;;;;;5077039;28;20025;-69
2021/03/27 01:06:23;;;;;;;0.60;0.60;;;6.50;72.80;;;;;;5075863;28;20462;-70
2021/03/27 01:08:51;;;;;;;0.50;0.50;;;6.40;72.80;;;;;;5076933;28;20388;-68
2021/03/27 01:11:24;;;;;;;0.40;0.40;;;6.50;73.10;;;;;;5076994;28;20051;-69
2021/03/27 01:13:54;;;;;;;0.50;0.50;;;6.40;73.20;;;;;;5075676;28;20077;-68
2021/03/27 01:16:29;;;;;;;0.60;0.60;;;6.40;73.50;;;;;;5077096;28;20020;-70
2021/03/27 01:19:02;;;;;;;1.17;0.63;;;6.40;73.60;;;;;;5076611;28;20049;-69
2021/03/27 01:21:32;;;;;;;0.47;0.47;;;6.40;73.70;;;;;;5075506;28;20028;-69
2021/03/27 01:24:08;;;;;;;1.63;0.68;;;6.40;73.80;;;;;;5076661;28;20033;-69
2021/03/27 01:26:50;;;;;;;0.60;0.60;;;6.50;74.00;;;;;;5077280;28;20075;-68
2021/03/27 01:29:36;;;;;;;0.65;0.65;;;6.50;74.10;;;;;;5077196;28;20405;-69
2021/03/27 01:32:23;;;;;;;0.75;0.75;;;6.40;74.00;;;;;;5076555;28;20021;-69
2021/03/27 01:35:23;;;;;;;0.90;0.90;;;6.50;74.10;;;;;;5076422;28;20017;-69
2021/03/27 01:37:58;;;;;;;1.23;1.02;;;6.60;74.10;;;;;;5034294;28;20032;-69
2021/03/27 01:40:45;;;;;;;1.33;1.20;;;6.50;74.30;;;;;;5018018;28;20044;-69
2021/03/27 01:43:26;;;;;;;3.03;1.73;;;6.50;74.50;;;;;;5034907;28;20017;-69
2021/03/27 01:46:30;;;;;;;2.63;1.70;;;6.60;74.80;;;;;;5034298;28;20065;-69
2021/03/27 01:49:23;;;;;;;0.88;0.88;;;6.60;74.70;;;;;;5034764;28;20060;-70
2021/03/27 01:52:13;;;;;;;1.33;1.23;;;6.60;74.80;;;;;;5034238;28;20076;-70
2021/03/27 01:54:43;;;;;;;0.93;0.88;;;6.60;74.70;;;;;;5034646;28;20112;-69
2021/03/27 01:57:30;;;;;;;1.73;1.27;;;6.60;74.70;;;;;;5034131;28;20025;-69
2021/03/27 02:00:13;;;;;;;1.88;1.77;;;6.60;74.90;;;;;;5034137;28;20045;-69
2021/03/27 02:03:09;;;;;;;2.33;1.85;;;6.60;75.30;;;;;;5034020;28;20430;-69
2021/03/27 02:05:40;;;;;;;3.53;2.33;;;6.60;75.40;;;;;;5017487;28;20117;-69
2021/03/27 02:08:22;;;;;;;2.90;2.00;;;6.50;75.50;;;;;;5033892;28;20021;-69
2021/03/27 02:11:17;;;;;;;3.22;2.30;;;6.60;75.60;;;;;;5037910;28;20453;-69
2021/03/27 02:14:04;;;;;;;1.95;1.65;;;6.60;75.70;;;;;;5073418;28;20080;-69
2021/03/27 02:16:36;;;;;;;2.50;2.20;;;6.50;75.80;;;;;;5075806;28;20045;-70
2021/03/27 02:19:43;;;;;;;3.28;2.60;;;6.50;75.80;;;;;;5075466;28;20040;-70
2021/03/27 02:22:36;;;;;;;1.98;1.52;;;6.50;76.00;;;;;;5075732;28;20029;-69
2021/03/27 02:25:15;;;;;;;2.97;2.10;;;6.50;76.10;;;;;;5075513;28;20405;-69
2021/03/27 02:27:51;;;;;;;2.37;1.80;;;6.50;76.20;;;;;;5075496;28;20025;-70
2021/03/27 02:30:25;;;;;;;2.92;1.95;;;6.40;76.20;;;;;;5075507;28;20024;-70
2021/03/27 02:33:08;;;;;;;3.03;2.22;;;6.40;76.30;;;;;;5075702;28;20024;-69
2021/03/27 02:36:05;;;;;;;2.17;1.55;;;6.10;76.80;;;;;;5075703;28;20020;-71
2021/03/27 02:39:06;;;;;;;5.75;3.10;;;6.00;77.10;;;;;;5075505;28;20116;-70
2021/03/27 02:41:43;;;;;;;2.13;1.83;;;5.80;77.40;;;;;;5072962;28;20033;-70
2021/03/27 02:44:27;;;;;;;2.63;2.17;;;5.70;77.60;;;;;;5075172;28;20086;-70
2021/03/27 02:46:59;;;;;;;2.50;1.83;;;5.70;77.90;;;;;;5075281;28;20021;-71
2021/03/27 02:49:24;;;;;;;3.00;1.73;;;5.70;77.70;;;;;;5075103;28;20469;-70
2021/03/27 02:52:08;;;;;;;2.58;1.98;;;5.80;77.70;;;;;;5075073;28;20078;-69
2021/03/27 02:54:55;;;;;;;1.67;1.38;;;5.80;77.60;;;;;;5075080;28;20024;-70
2021/03/27 02:57:30;;;;;;;2.60;1.80;;;5.90;77.50;;;;;;5073634;28;20025;-70
2021/03/27 03:00:18;;;;;;;2.22;1.67;;;5.90;77.50;;;;;;5074866;28;20029;-70
2021/03/27 03:02:52;;;;;;;2.83;2.10;;;6.00;77.40;;;;;;5073644;28;20127;-69
2021/03/27 03:05:49;;;;;;;3.75;2.20;;;6.10;77.30;;;;;;5074782;28;20036;-70
2021/03/27 03:08:36;;;;;;;1.80;1.70;;;6.10;77.40;;;;;;5073943;28;20033;-70
2021/03/27 03:11:23;;;;;;;3.33;2.50;;;6.10;77.50;;;;;;5074687;28;20461;-69
2021/03/27 03:14:03;;;;;;;2.42;1.80;;;6.10;77.60;;;;;;5075119;28;20025;-69
2021/03/27 03:16:45;;;;;;;3.28;2.08;;;6.10;77.80;;;;;;5075134;28;20027;-69
2021/03/27 03:19:25;;;;;;;2.05;1.42;;;6.10;77.90;;;;;;5074377;28;20045;-69
2021/03/27 03:22:05;;;;;;;5.55;2.95;;;6.10;77.90;;;;;;5074537;28;20028;-70
2021/03/27 03:24:46;;;;;;;3.03;1.73;;;6.00;77.90;;;;;;5074915;28;20426;-69
2021/03/27 03:27:21;;;;;;;2.58;2.28;;;6.00;78.00;;;;;;5074838;28;20508;-70
2021/03/27 03:30:05;;;;;;;4.05;2.42;;;6.00;78.10;;;;;;5073084;28;20074;-69
2021/03/27 03:32:30;;;;;;;3.33;2.03;;;6.10;78.20;;;;;;5074258;28;20031;-69
2021/03/27 03:35:02;;;;;;;2.70;1.83;;;6.10;78.10;;;;;;5074183;28;20020;-69
2021/03/27 03:38:09;;;;;;;3.30;2.20;;;6.10;78.00;;;;;;5074137;28;20355;-69
2021/03/27 03:40:59;;;;;;;1.63;1.52;;;6.20;78.00;;;;;;5032296;28;20048;-69
2021/03/27 03:43:28;;;;;;;2.50;1.90;;;6.20;78.00;;;;;;5032616;28;20026;-69
2021/03/27 03:46:24;;;;;;;2.00;1.63;;;6.20;77.90;;;;;;5032222;28;20033;-69
2021/03/27 03:49:08;;;;;;;2.70;1.90;;;6.20;77.90;;;;;;5032079;28;20029;-69
2021/03/27 03:51:45;;;;;;;2.25;1.70;;;6.30;78.00;;;;;;5031951;28;20042;-70
2021/03/27 03:54:24;;;;;;;3.33;2.28;;;6.30;78.20;;;;;;5031866;28;20026;-69
2021/03/27 03:56:58;;;;;;;4.10;2.28;;;6.30;78.30;;;;;;5031802;28;20091;-70
2021/03/27 03:59:34;;;;;;;2.90;2.13;;;6.30;78.30;;;;;;5015141;28;20367;-69
2021/03/27 04:02:07;;;;;;;2.90;1.85;;;6.30;78.20;;;;;;5015187;28;20470;-69
2021/03/27 04:04:42;;;;;;;3.53;2.20;;;6.40;78.40;;;;;;5031783;28;20045;-69
2021/03/27 04:07:12;;;;;;;1.92;1.65;;;6.40;78.50;;;;;;5031674;28;20490;-69
2021/03/27 04:09:52;;;;;;;3.38;2.00;;;6.40;78.50;;;;;;5031969;28;20084;-70
2021/03/27 04:12:31;;;;;;;3.45;2.35;;;6.40;78.50;;;;;;5031512;28;20025;-69
2021/03/27 04:15:21;;;;;;;5.38;3.45;;;6.40;78.60;;;;;;5032135;28;20474;-69
2021/03/27 04:18:16;;;;;;;3.25;2.20;;;6.40;78.60;;;;;;5061843;28;20047;-69
2021/03/27 04:20:52;;;;;;;2.65;2.13;;;6.40;78.80;;;;;;5073398;28;20362;-70
2021/03/27 04:23:38;;;;;;;3.47;2.35;;;6.40;78.80;;;;;;5073387;28;20028;-69
2021/03/27 04:26:26;;;;;;;4.75;2.67;;;6.40;78.80;;;;;;5073334;28;20048;-69
2021/03/27 04:29:11;;;;;;;3.72;2.15;;;6.40;78.90;;;;;;5072028;28;20027;-69
2021/03/27 04:31:49;;;;;;;3.92;2.40;;;6.40;78.90;;;;;;5073117;28;20016;-70
2021/03/27 04:34:33;;;;;;;3.15;1.83;;;6.30;79.10;;;;;;5072831;28;20347;-69
2021/03/27 04:37:10;;;;;;;4.60;3.13;;;6.30;79.20;;;;;;5073745;28;20115;-70
2021/03/27 04:40:23;;;;;;;4.18;2.17;;;6.30;79.30;;;;;;5073618;28;20033;-69
2021/03/27 04:43:04;;;;;;;4.28;2.42;;;6.30;79.30;;;;;;5031559;28;20037;-69
2021/03/27 04:45:42;;;;;;;5.43;2.80;;;6.30;79.40;;;;;;5031673;28;20116;-70
2021/03/27 04:48:29;;;;;;;4.00;2.13;;;6.30;79.40;;;;;;5014562;28;20160;-69
2021/03/27 04:51:19;;;;;;;3.85;1.80;;;6.30;79.40;;;;;;5031075;28;20037;-69
2021/03/27 04:54:25;;;;;;;2.75;1.80;;;6.30;79.30;;;;;;5031069;28;20069;-69
2021/03/27 04:57:21;;;;;;;2.88;2.60;;;6.30;79.30;;;;;;5031513;28;20398;-70
2021/03/27 05:00:15;;;;;;;2.85;2.20;;;6.30;79.30;;;;;;5030926;28;20065;-69
2021/03/27 05:03:25;;;;;;;3.63;2.25;;;6.30;79.30;;;;;;5031457;28;20033;-70
2021/03/27 05:06:03;;;;;;;2.22;1.50;;;6.30;79.50;;;;;;5030892;28;20129;-69
2021/03/27 05:08:50;;;;;;;3.50;2.17;;;6.20;79.50;;;;;;5031359;28;20034;-70
2021/03/27 05:11:21;;;;;;;2.92;1.63;;;6.30;79.60;;;;;;5014340;28;20033;-69
2021/03/27 05:14:10;;;;;;;2.20;1.92;;;6.30;79.50;;;;;;5031008;28;20056;-69
2021/03/27 05:16:40;;;;;;;2.95;1.23;;;6.40;79.30;;;;;;5030924;28;20049;-69
2021/03/27 05:19:15;;;;;;;;;;;6.40;79.20;;;;;;5040924;28;20098;-69
2021/03/27 05:22:08;;;;;;;1.13;1.00;;;6.40;78.90;;;;;;5053231;28;19936;-69
2021/03/27 05:25:05;;;;;;;4.00;1.70;;;6.50;79.10;;;;;;5052726;28;20017;-69
2021/03/27 05:27:44;;;;;;;3.67;1.58;;;6.50;78.90;;;;;;5051398;28;20108;-70
2021/03/27 05:30:22;;;;;;;2.83;2.00;;;6.40;79.20;;;;;;5052767;28;20021;-70
2021/03/27 05:32:52;;;;;;;2.00;1.90;;;6.30;79.50;;;;;;5052596;28;20508;-70
2021/03/27 05:35:25;;;;;;;1.98;1.00;;;6.20;79.80;;;;;;5052670;28;20057;-70
2021/03/27 05:38:35;;;;;;;1.70;1.20;;;6.10;80.10;;;;;;5052469;28;20029;-69
2021/03/27 05:41:03;;;;;;;1.58;1.00;;;6.00;80.40;;;;;;5030589;28;20033;-70
2021/03/27 05:43:43;;;;;;;1.15;1.08;;;5.90;80.50;;;;;;5030972;28;20030;-70
2021/03/27 05:46:30;;;;;;;1.02;0.88;;;5.80;80.50;;;;;;5034393;28;20036;-70
2021/03/27 05:49:23;;;;;;;0.63;0.63;;;5.80;80.70;;;;;;5034596;28;20471;-69
2021/03/27 05:52:13;;;;;;;1.30;0.70;;;5.70;80.70;;;;;;5034693;28;20029;-69
2021/03/27 05:55:23;;;;;;;0.73;0.60;;;5.70;80.70;;;;;;5017530;28;20032;-69
2021/03/27 05:57:56;;;;;;;1.23;0.90;;;5.70;80.60;;;;;;5034148;28;20037;-70
2021/03/27 06:00:45;;;;;;;0.80;0.80;;;5.70;80.60;;;;;;5034030;28;20061;-70
2021/03/27 06:03:29;;;;;;;1.77;0.93;;;5.70;80.60;;;;;;5034725;28;20072;-69
2021/03/27 06:06:30;;;;;;;1.23;0.77;;;5.70;80.80;;;;;;5033856;28;20052;-69
2021/03/27 06:09:29;;;;;;;1.42;1.30;;;5.80;80.20;;;;;;5034462;28;20037;-70
2021/03/27 06:12:16;;;;;;;0.88;0.60;;;5.90;80.10;;;;;;5017230;28;20087;-70
2021/03/27 06:14:59;;;;;;;2.67;1.10;;;5.90;80.00;;;;;;5042044;28;20033;-69
2021/03/27 06:17:32;;;;;;;0.93;0.90;;;6.00;80.00;;;;;;5059691;28;20045;-69
2021/03/27 06:20:13;;;;;;;2.53;1.13;;;5.90;79.90;;;;;;5075983;28;20040;-69
2021/03/27 06:23:01;;;;;;;2.17;1.30;;;5.90;80.10;;;;;;5075575;28;20028;-69
2021/03/27 06:25:46;;;;;;;1.05;0.80;;;5.90;80.20;;;;;;5075638;28;20067;-69
2021/03/27 06:28:20;;;;;;;1.60;0.80;;;5.70;80.40;;;;;;5076081;28;20107;-69
2021/03/27 06:31:23;;;;;;;2.22;0.70;;;5.70;80.50;;;;;;5075529;28;20029;-69
2021/03/27 06:34:12;;;;;;;1.13;0.70;;;5.80;80.40;;;;;;5075368;28;20020;-70
2021/03/27 06:36:52;;;;;;;0.50;0.50;;;5.70;80.30;;;;;;5075323;28;20035;-69
2021/03/27 06:39:49;;;;;;;1.58;0.80;;;5.70;80.40;;;;;;5075715;28;20460;-70
2021/03/27 06:42:41;;;;;;;2.03;0.70;;;5.60;80.50;;;;;;5075155;28;20024;-69
2021/03/27 06:45:44;;;;;;;0.60;0.60;;;5.60;80.60;;;;;;5075629;28;20469;-69
2021/03/27 06:48:37;;;;;;;0.55;0.55;;;5.50;80.60;;;;;;5075054;28;20024;-70
2021/03/27 06:51:23;;;;;;;0.40;0.40;;;5.40;80.60;;;;;;5075058;28;20055;-69
2021/03/27 06:54:24;;;;;;;0.30;0.30;;;5.30;80.70;;;;;;5075563;28;20028;-69
2021/03/27 06:57:01;;;;;;;0.73;0.60;;;5.30;80.80;;;;;;5074047;28;20036;-68
2021/03/27 06:59:55;;;;;;;0.73;0.73;;;5.30;80.80;;;;;;5074811;28;20041;-70
2021/03/27 07:02:33;;;;;;;0.68;0.60;;;5.20;80.80;;;;;;5073498;28;20025;-70
2021/03/27 07:04:58;;;;;;;0.65;0.55;;;5.20;80.90;;;;;;5075231;28;20372;-70
2021/03/27 07:07:43;;;;;;;0.50;0.50;;;5.10;80.80;;;;;;5074723;28;20540;-69
2021/03/27 07:10:34;;;;;;;0.75;0.70;;;5.10;80.80;;;;;;5075203;28;20078;-70
2021/03/27 07:13:30;;;;;;;0.75;0.75;;;5.00;80.80;;;;;;5074548;28;20028;-69
2021/03/27 07:16:23;;;;;;;0.65;0.40;;;5.00;81.40;;;;;;5074554;28;20033;-69
2021/03/27 07:19:14;;;;;;;1.77;0.60;;;5.00;80.80;;;;;;5074177;28;20088;-70
2021/03/27 07:22:04;;;;;;;1.38;0.60;;;5.10;80.80;;;;;;5074380;28;20112;-72
2021/03/27 07:24:35;;;;;;;0.40;0.40;;;5.10;80.60;;;;;;5074879;28;20028;-71
2021/03/27 07:27:26;;;;;;;0.75;0.43;;;5.20;80.50;;;;;;5074797;28;20020;-71
2021/03/27 07:30:29;;;;;;;1.83;1.15;;;5.30;80.40;;;;;;5072974;28;20381;-71
2021/03/27 07:32:58;;;;;;;0.75;0.75;;;5.50;80.20;;;;;;5074168;28;20091;-71
2021/03/27 07:35:51;;;;;;;0.65;0.65;;;5.60;80.00;;;;;;5074130;28;20021;-71
2021/03/27 07:38:40;;;;;;;1.30;1.20;;;5.80;79.90;;;;;;5074010;28;20099;-70
2021/03/27 07:41:21;;;;;;;0.63;0.63;;;6.10;79.40;;;;;;5074078;28;20025;-71
2021/03/27 07:44:20;;;;;;;3.20;1.42;;;6.20;79.30;;;;;;5072694;28;20385;-71
2021/03/27 07:47:23;;;;;;;1.50;0.82;;;6.30;79.10;;;;;;5073887;28;20116;-72
2021/03/27 07:50:20;;;;;;;1.13;1.00;;;6.40;79.10;;;;;;5073843;28;20021;-72
2021/03/27 07:53:12;;;;;;;1.33;0.70;;;6.50;79.10;;;;;;5073836;28;20060;-71
2021/03/27 07:55:49;;;;;;;0.98;0.75;;;6.40;79.30;;;;;;5073797;28;20496;-70
2021/03/27 07:58:59;;;;;;;1.80;1.00;;;6.50;79.50;;;;;;5073656;28;20032;-70
2021/03/27 08:01:52;;;;;;;2.13;0.60;;;6.60;79.10;;;;;;5073597;28;20033;-69
2021/03/27 08:04:36;;;;;;;1.75;0.90;;;6.80;78.90;;;;;;5074112;28;20024;-72
2021/03/27 08:07:08;;;;;;;1.90;1.02;;;6.90;78.90;;;;;;5073961;28;20035;-71
2021/03/27 08:10:02;;;;;;;0.65;0.63;;;7.00;78.90;;;;;;5074069;28;20056;-71
2021/03/27 08:13:20;;;;;;;1.58;1.35;;;7.00;78.80;;;;;;5073375;28;20092;-71
2021/03/27 08:16:23;;;;;;;1.85;1.02;;;7.10;79.40;;;;;;5073898;28;20016;-72
2021/03/27 08:19:15;;;;;;;3.17;1.10;;;7.10;78.60;;;;;;5073185;28;20437;-72
2021/03/27 08:22:20;;;;;;;2.45;0.90;;;7.20;78.60;;;;;;5073348;28;20033;-72
2021/03/27 08:25:02;;;;;;;1.38;0.88;;;7.20;78.70;;;;;;5073155;28;20190;-72
2021/03/27 08:27:37;;;;;;;1.45;0.70;;;7.20;78.70;;;;;;5073215;28;20078;-72
2021/03/27 08:30:37;;;;;;;1.02;0.65;;;7.20;78.80;;;;;;5073784;28;20100;-71
2021/03/27 08:33:15;;;;;;;1.20;0.80;;;7.20;78.70;;;;;;5073756;28;20048;-70
2021/03/27 08:36:18;;;;;;;2.25;0.88;;;7.30;78.70;;;;;;5073750;28;20020;-71
2021/03/27 08:39:15;;;;;;;1.58;1.30;;;7.40;78.50;;;;;;5073019;28;20089;-71
2021/03/27 08:42:05;;;;;;;1.00;0.77;;;7.30;78.20;;;;;;5073624;28;20078;-70
2021/03/27 08:45:03;;;;;;;5.97;1.17;;;7.00;78.60;;;;;;5073612;28;20043;-71
2021/03/27 08:48:02;;;;;;;2.50;1.45;;;6.80;78.80;;;;;;5073574;28;20020;-71
2021/03/27 08:50:58;;;;;;;2.08;1.00;;;6.50;79.10;;;;;;5072939;28;20029;-71
2021/03/27 08:53:59;;;;;;;1.40;1.02;;;6.40;79.50;;;;;;5072871;28;20028;-70
2021/03/27 08:57:09;;;;;;;1.13;0.73;;;6.40;79.30;;;;;;5072857;28;20119;-70
2021/03/27 08:59:40;;;;;;;;;;;6.70;78.80;;;;;;5031174;28;20079;-70
2021/03/27 09:02:42;;;;;;;0.73;0.73;;;6.70;78.20;;;;;;5030988;28;20374;-69
2021/03/27 09:05:23;;;;;;;1.17;0.80;;;6.60;78.30;;;;;;5031362;28;20144;-70
2021/03/27 09:08:10;;;;;;;2.95;1.48;;;6.50;78.60;;;;;;5014170;28;20432;-70
2021/03/27 09:10:54;;;;;;;1.52;0.90;;;6.30;78.80;;;;;;5030888;28;20112;-70
2021/03/27 09:13:28;;;;;;;0.52;0.52;;;6.00;79.30;;;;;;5030799;28;20033;-71
2021/03/27 09:16:31;;;;;;;1.08;0.63;;;5.60;79.90;;;;;;5030593;28;20076;-71
2021/03/27 09:19:11;;;;;;;3.30;1.38;;;5.30;80.90;;;;;;5031599;28;20061;-71
2021/03/27 09:22:22;;;;;;;0.50;0.50;;;5.20;81.10;;;;;;5034737;28;20451;-70
2021/03/27 09:25:02;;;;;;;1.48;1.25;;;5.30;81.00;;;;;;5034477;28;20029;-70
2021/03/27 09:27:48;;;;;;;0.68;0.50;;;5.30;80.90;;;;;;5034549;28;20445;-70
2021/03/27 09:30:49;;;;;;;1.55;0.60;;;5.70;80.80;;;;;;5035063;28;20463;-70
2021/03/27 09:33:27;;;;;;;2.47;1.95;;;6.20;80.00;;;;;;5017878;28;20440;-70
2021/03/27 09:36:21;;;;;;;0.68;0.68;;;6.50;79.00;;;;;;5053445;28;20036;-71
2021/03/27 09:39:10;;;;;;;1.35;1.00;;;6.70;78.70;;;;;;5076326;28;20040;-71
2021/03/27 09:41:54;;;;;;;3.05;1.55;;;6.80;78.50;;;;;;5076273;28;20028;-71
2021/03/27 09:44:34;;;;;;;3.58;1.02;;;6.90;78.60;;;;;;5076225;28;20055;-71
2021/03/27 09:47:51;;;;;;;1.50;1.38;;;6.90;78.90;;;;;;5076349;28;20097;-70
2021/03/27 09:50:34;;;;;;;3.42;1.08;;;7.30;78.50;;;;;;5034355;28;20046;-70
2021/03/27 09:53:22;;;;;;;2.00;0.88;;;7.50;77.90;;;;;;5034302;28;20367;-71
2021/03/27 09:56:15;;;;;;;2.00;1.15;;;7.80;77.50;;;;;;5034674;28;20033;-71
2021/03/27 09:59:01;;;;;;;3.10;1.70;;;8.00;77.20;;;;;;5033840;28;20037;-70
2021/03/27 10:01:37;;;;;;;1.08;0.55;;;7.90;77.30;;;;;;5033987;28;20033;-71
2021/03/27 10:04:09;;;;;;;1.70;0.90;;;7.60;78.30;;;;;;5033944;28;20053;-71
2021/03/27 10:06:51;;;;;;;2.45;1.23;;;7.50;78.50;;;;;;5034125;28;20475;-71
2021/03/27 10:09:38;;;;;;;3.42;1.15;;;7.40;78.50;;;;;;5033961;28;20041;-70
2021/03/27 10:12:11;;;;;;;2.45;1.60;;;7.40;78.60;;;;;;5034368;28;20041;-70
2021/03/27 10:15:02;;;;;;;1.20;1.10;;;7.50;78.40;;;;;;5033721;28;20029;-70
2021/03/27 10:17:38;;;;;;;2.15;1.20;;;7.70;78.00;;;;;;5025596;28;20044;-70
2021/03/27 10:20:35;;;;;;;3.65;1.38;;;8.00;77.00;;;;;;5017176;28;20544;-71
2021/03/27 10:23:31;;;;;;;2.63;1.70;;;8.00;76.60;;;;;;5033016;28;20040;-71
2021/03/27 10:26:29;;;;;;;1.30;0.80;;;8.10;76.30;;;;;;5061582;28;20440;-70
2021/03/27 10:29:34;;;;;;;1.05;0.80;;;8.10;76.20;;;;;;5076076;28;20017;-71
2021/03/27 10:32:45;;;;;;;1.98;1.55;;;8.10;76.00;;;;;;5016008;28;20569;-70
2021/03/27 10:35:47;;;;;;;2.95;0.82;;;7.90;75.20;;;;;;5016908;28;20120;-71
2021/03/27 10:38:46;;;;;;;1.95;0.95;;;7.80;76.10;;;;;;5033250;28;20056;-70
2021/03/27 10:41:44;;;;;;;1.20;0.75;;;7.90;74.60;;;;;;5016603;28;20022;-71
2021/03/27 10:44:31;;;;;;;3.95;1.60;;;8.00;74.50;;;;;;4974500;28;20039;-70
2021/03/27 10:47:20;;;;;;;4.85;1.38;;;8.00;73.90;;;;;;4974452;28;20578;-70
2021/03/27 10:50:35;;;;;;;1.75;1.00;;;8.20;73.30;;;;;;4975066;28;20123;-70
2021/03/27 10:53:19;;;;;;;2.85;1.40;;;8.40;73.10;;;;;;4935821;29;20103;-70
2021/03/27 10:56:16;;;;;;;1.20;0.80;;;8.60;72.30;;;;;;4935738;29;20139;-70
2021/03/27 10:59:03;;;;;;;1.40;0.95;;;8.90;72.10;;;;;;4935670;29;20072;-71
2021/03/27 11:02:04;;;;;;;2.45;1.00;;;9.20;71.20;;;;;;4935759;29;20122;-71
2021/03/27 11:05:04;;;;;;;1.55;1.15;;;9.50;70.90;;;;;;4936124;29;20134;-70
2021/03/27 11:08:00;;;;;;;2.17;1.15;;;9.50;70.40;;;;;;4942175;28;20502;-70
2021/03/27 11:11:02;;;;;;;1.45;0.85;;;9.40;70.80;;;;;;4974550;28;20051;-70
2021/03/27 11:13:57;;;;;;;2.05;1.00;;;9.30;70.50;;;;;;4973706;28;20488;-70
2021/03/27 11:17:04;;;;;;;2.08;0.90;;;9.30;70.40;;;;;;4973959;28;20042;-70
2021/03/27 11:19:47;;;;;;;1.48;1.02;;;9.10;70.90;;;;;;4939507;28;20042;-70
2021/03/27 11:22:23;;;;;;;2.60;1.10;;;9.10;71.00;;;;;;5032570;28;20030;-70
2021/03/27 11:25:34;;;;;;;2.95;1.08;;;9.20;70.50;;;;;;5032336;28;20034;-71
2021/03/27 11:28:21;;;;;;;1.30;1.20;;;9.30;69.90;;;;;;5042600;28;20029;-71
2021/03/27 11:30:58;;;;;;;0.60;0.60;;;9.30;69.90;;;;;;5072974;28;20461;-71
2021/03/27 11:33:42;;;;;;;4.07;1.85;;;9.40;69.80;;;;;;5072938;28;20461;-70
2021/03/27 11:36:11;;;;;;;3.33;1.55;;;9.80;68.90;;;;;;5074111;28;20035;-69
2021/03/27 11:38:44;;;;;;;4.03;1.25;;;9.90;68.60;;;;;;5072702;28;20485;-69
2021/03/27 11:41:16;;;;;;;1.45;1.10;;;9.90;68.30;;;;;;5073755;28;20400;-70
2021/03/27 11:44:23;;;;;;;5.32;1.17;;;9.60;68.40;;;;;;5074568;28;20021;-69
2021/03/27 11:46:54;;;;;;;3.47;1.48;;;9.10;69.70;;;;;;5073439;28;20043;-69
2021/03/27 11:49:47;;;;;;;1.83;1.52;;;8.60;70.10;;;;;;5074217;28;20055;-68
2021/03/27 11:52:37;;;;;;;2.83;1.10;;;8.20;70.60;;;;;;5073925;28;20021;-70
2021/03/27 11:55:07;;;;;;;1.95;1.27;;;7.90;71.60;;;;;;5073856;28;20028;-70
2021/03/27 11:57:55;;;;;;;1.80;1.35;;;7.80;71.90;;;;;;5073879;28;20072;-70
2021/03/27 12:03:27;;;;;;;0.95;0.82;;;7.60;72.10;;;;;;5074474;28;20090;-70
2021/03/27 12:06:04;;;;;;;0.70;0.70;;;7.60;72.20;;;;;;5074206;28;20031;-71
2021/03/27 12:08:52;;;;;;;0.50;0.50;;;7.70;72.20;;;;;;5073547;28;20024;-71
2021/03/27 12:11:53;;;;;;;1.93;1.30;;;7.70;72.40;;;;;;5073603;28;20052;-70
2021/03/27 12:14:32;;;;;;;1.65;1.33;;;7.80;71.80;;;;;;5073603;28;20266;-71
2021/03/27 12:17:30;;;;;;;1.80;1.37;;;7.90;71.60;;;;;;5074037;28;20036;-72
2021/03/27 12:20:13;;;;;;;2.72;1.10;;;8.10;71.10;;;;;;5073577;28;20040;-71
2021/03/27 12:22:47;;;;;;;2.00;1.10;;;8.20;70.70;;;;;;5073250;28;20048;-71
2021/03/27 12:25:46;;;;;;;1.77;1.30;;;8.10;71.10;;;;;;5073361;28;20024;-73
2021/03/27 12:28:35;;;;;;;3.85;2.08;;;7.80;71.20;;;;;;5070105;28;20037;-71
2021/03/27 12:31:25;;;;;;;2.60;0.93;;;6.70;73.80;;;;;;5073371;28;20119;-72
2021/03/27 12:34:10;;;;;;;2.70;1.30;;;5.80;76.10;;;;;;5073347;28;20016;-72
2021/03/27 12:37:04;;;;;;;1.33;0.70;;;5.60;76.60;;;;;;5073184;28;20028;-72
2021/03/27 12:39:55;;;;;;;1.65;0.82;;;5.80;76.20;;;;;;5073366;28;20032;-73
2021/03/27 12:42:32;;;;;;;1.52;0.82;;;6.10;75.20;;;;;;5057284;28;20063;-71
2021/03/27 12:45:02;;;;;;;2.90;1.05;;;6.40;74.50;;;;;;5073134;28;20473;-72
2021/03/27 12:47:36;;;;;;;1.17;0.90;;;6.60;74.20;;;;;;5073231;28;20025;-72
2021/03/27 12:50:17;;;;;;;0.65;0.60;;;6.90;73.90;;;;;;5073139;28;20050;-74
2021/03/27 12:52:59;;;;;;;3.25;0.80;;;7.10;73.30;;;;;;5072814;28;20028;-72
2021/03/27 12:55:58;;;;;;;2.00;0.93;;;7.20;73.10;;;;;;5071572;28;20032;-74
2021/03/27 12:58:54;;;;;;;1.02;0.80;;;7.20;73.30;;;;;;5071693;28;20095;-74
2021/03/27 13:01:39;;;;;;;0.98;0.82;;;7.10;73.50;;;;;;5073511;28;20052;-73
2021/03/27 13:04:22;;;;;;;1.88;1.15;;;7.20;73.70;;;;;;5071726;28;20367;-73
2021/03/27 13:06:57;;;;;;;1.92;1.08;;;7.30;73.60;;;;;;5072900;28;20020;-73
2021/03/27 13:09:50;;;;;;;1.85;1.00;;;7.20;73.90;;;;;;5072990;28;20025;-74
2021/03/27 13:12:35;;;;;;;3.03;1.05;;;7.10;74.00;;;;;;5071661;28;20017;-74
2021/03/27 13:15:36;;;;;;;2.13;0.80;;;7.20;73.90;;;;;;5072970;28;20028;-73
2021/03/27 13:18:04;;;;;;;1.65;0.93;;;7.40;73.60;;;;;;5072918;28;20560;-74
2021/03/27 13:20:55;;;;;;;1.00;0.70;;;7.60;73.20;;;;;;5072661;28;20485;-74
2021/03/27 13:23:49;;;;;;;2.15;0.88;;;7.90;72.90;;;;;;5072789;28;20038;-74
2021/03/27 13:26:27;;;;;;;3.72;1.25;;;8.70;71.70;;;;;;5067042;28;20082;-74
2021/03/27 13:29:02;;;;;;;2.90;1.38;;;9.50;70.50;;;;;;5071441;28;20074;-73
2021/03/27 13:31:49;;;;;;;0.82;0.70;;;10.10;69.30;;;;;;5071378;28;20020;-74
2021/03/27 13:34:24;;;;;;;3.92;1.20;;;10.60;68.90;;;;;;5073161;28;20032;-73
2021/03/27 13:37:29;;;;;;;3.42;1.20;;;11.10;67.80;;;;;;5073155;28;20023;-75
2021/03/27 13:40:05;;;;;;;1.60;0.82;;;10.90;68.00;;;;;;5064862;28;20045;-73
2021/03/27 13:42:55;;;;;;;2.42;1.10;;;11.20;68.50;;;;;;5073165;28;20166;-74
2021/03/27 13:45:26;;;;;;;2.38;0.82;;;11.70;68.10;;;;;;5072514;28;20032;-73
2021/03/27 13:48:22;;;;;;;2.97;0.95;;;12.10;67.20;;;;;;5072615;28;20560;-74
2021/03/27 13:51:12;;;;;;;2.40;1.10;;;12.10;66.90;;;;;;5071193;28;20020;-74
2021/03/27 13:53:46;;;;;;;2.00;0.90;;;11.50;67.70;;;;;;5071205;28;20043;-74
2021/03/27 13:56:31;;;;;;;4.22;2.38;;;10.90;69.00;;;;;;5072579;28;20020;-75
2021/03/27 13:59:18;;;;;;;1.08;0.63;;;10.50;69.80;;;;;;5071152;28;20362;-74
2021/03/27 14:02:06;;;;;;;1.98;0.93;;;10.30;70.30;;;;;;5071170;28;20017;-74
2021/03/27 14:04:40;;;;;;;1.92;1.05;;;10.00;70.30;;;;;;5071371;28;20029;-73
2021/03/27 14:07:21;;;;;;;2.67;0.95;;;9.80;70.20;;;;;;5075988;28;20048;-73
2021/03/27 14:10:28;;;;;;;3.05;1.55;;;9.70;70.50;;;;;;5076473;28;20028;-74
2021/03/27 14:13:13;;;;;;;3.75;1.63;;;9.60;70.20;;;;;;5073987;28;20037;-74
2021/03/27 14:15:48;;;;;;;2.47;1.30;;;9.70;70.00;;;;;;5076340;28;20048;-72
2021/03/27 14:18:19;;;;;;;3.13;1.00;;;9.70;69.70;;;;;;5075685;28;20055;-73
2021/03/27 14:20:53;;;;;;;1.40;1.30;;;9.80;69.60;;;;;;5075785;28;20029;-73
2021/03/27 14:23:51;;;;;;;2.67;1.40;;;9.90;69.30;;;;;;5075722;28;20031;-73
2021/03/27 14:26:27;;;;;;;3.55;1.35;;;10.10;68.60;;;;;;5074344;28;20082;-74
2021/03/27 14:29:09;;;;;;;1.58;1.30;;;10.20;68.40;;;;;;5076086;28;20023;-73
2021/03/27 14:31:53;;;;;;;3.70;1.38;;;10.10;68.20;;;;;;5074416;28;20052;-73
2021/03/27 14:34:40;;;;;;;1.92;1.33;;;10.00;68.40;;;;;;5075369;28;20027;-72
2021/03/27 14:37:17;;;;;;;1.42;1.20;;;9.80;68.70;;;;;;5075835;28;20016;-73